PGT6155 LTFE-LTCG
Flight info
| Callsign | PGT6155 |
|---|---|
| Flight time | 1h 38m |
| Altitude | 30000 |
| Route | CENGO UT495 NEPNO UW95 ARMAM UT495 KAVAK UW95 CRD UN136 DESEM UW78 TEKDO UN136 KFK UT54 HALIL UW77 BAG UW71 CRM UM11 TEMEL |
| Aircraft | B738/M-SDE2E3FGHIRWXY/LB1 |
Departure
| Time | 2026-04-23 17:28 |
|---|---|
| Airport | Milas Bodrum International Airport (LTFE) |
Arrival
| Time | 2026-04-23 19:06 |
|---|---|
| Airport | Trabzon International Airport (LTCG) |
| Time | Latitude | Longitude | Altitude | Speed | Heading |
|---|---|---|---|---|---|
| 2026-04-23 17:08 | 37.24489 | 27.67412 | 29 ft | 0 kts | 197° |
| 2026-04-23 17:18 | 37.24495 | 27.67414 | 29 ft | 2 kts | 194° |
| 2026-04-23 17:18 | 37.24511 | 27.67419 | 29 ft | 2 kts | 194° |
| 2026-04-23 17:18 | 37.24527 | 27.67424 | 29 ft | 2 kts | 189° |
| 2026-04-23 17:19 | 37.24544 | 27.67426 | 29 ft | 2 kts | 178° |
| 2026-04-23 17:19 | 37.24560 | 27.67422 | 29 ft | 2 kts | 135° |
| 2026-04-23 17:19 | 37.24566 | 27.67408 | 29 ft | 1 kts | 104° |
| 2026-04-23 17:19 | 37.24567 | 27.67406 | 29 ft | 0 kts | 104° |
| 2026-04-23 17:23 | 37.24550 | 27.67476 | 29 ft | 10 kts | 106° |
| 2026-04-23 17:23 | 37.24522 | 27.67598 | 29 ft | 18 kts | 106° |
| 2026-04-23 17:23 | 37.24436 | 27.67979 | 29 ft | 30 kts | 106° |
| 2026-04-23 17:24 | 37.24290 | 27.68151 | 29 ft | 29 kts | 195° |
| 2026-04-23 17:25 | 37.24264 | 27.68142 | 29 ft | 0 kts | 195° |
| 2026-04-23 17:25 | 37.24263 | 27.68141 | 29 ft | 2 kts | 195° |
| 2026-04-23 17:26 | 37.24260 | 27.68234 | 29 ft | 13 kts | 28° |
| 2026-04-23 17:26 | 37.24586 | 27.68105 | 28 ft | 31 kts | 340° |
| 2026-04-23 17:27 | 37.24793 | 27.67859 | 30 ft | 25 kts | 287° |
| 2026-04-23 17:27 | 37.24922 | 27.67321 | 31 ft | 105 kts | 287° |
| 2026-04-23 17:27 | 37.25199 | 27.66137 | 30 ft | 175 kts | 286° |
| 2026-04-23 17:27 | 37.25586 | 27.64463 | 247 ft | 217 kts | 286° |
| 2026-04-23 17:28 | 37.26035 | 27.62516 | 688 ft | 247 kts | 285° |
| 2026-04-23 17:28 | 37.26458 | 27.60387 | 1572 ft | 252 kts | 283° |
| 2026-04-23 17:28 | 37.26870 | 27.58224 | 2467 ft | 259 kts | 283° |
| 2026-04-23 17:28 | 37.27320 | 27.55916 | 2724 ft | 285 kts | 284° |
| 2026-04-23 17:29 | 37.27820 | 27.53398 | 3036 ft | 307 kts | 284° |
| 2026-04-23 17:29 | 37.28348 | 27.50766 | 3781 ft | 313 kts | 284° |
| 2026-04-23 17:29 | 37.28386 | 27.45362 | 5381 ft | 320 kts | 246° |
| 2026-04-23 17:30 | 37.27632 | 27.43776 | 5918 ft | 322 kts | 231° |
| 2026-04-23 17:30 | 37.23741 | 27.41120 | 7414 ft | 331 kts | 186° |
| 2026-04-23 17:30 | 37.21445 | 27.41368 | 8143 ft | 335 kts | 163° |
| 2026-04-23 17:31 | 37.19368 | 27.42704 | 8855 ft | 340 kts | 141° |
| 2026-04-23 17:31 | 37.17838 | 27.44967 | 9558 ft | 344 kts | 118° |
| 2026-04-23 17:31 | 37.17110 | 27.48807 | 10462 ft | 349 kts | 86° |
| 2026-04-23 17:31 | 37.17739 | 27.51735 | 11136 ft | 352 kts | 62° |
| 2026-04-23 17:32 | 37.18649 | 27.53468 | 11598 ft | 353 kts | 51° |
| 2026-04-23 17:32 | 37.20256 | 27.55817 | 12245 ft | 357 kts | 48° |
| 2026-04-23 17:32 | 37.21924 | 27.58153 | 12875 ft | 361 kts | 48° |
| 2026-04-23 17:32 | 37.23508 | 27.60560 | 13478 ft | 365 kts | 58° |
| 2026-04-23 17:33 | 37.24405 | 27.63576 | 14061 ft | 369 kts | 83° |
| 2026-04-23 17:33 | 37.24304 | 27.66747 | 14729 ft | 370 kts | 103° |
| 2026-04-23 17:33 | 37.23370 | 27.69763 | 15325 ft | 373 kts | 117° |
| 2026-04-23 17:33 | 37.22149 | 27.72658 | 15889 ft | 377 kts | 118° |
| 2026-04-23 17:34 | 37.20884 | 27.75561 | 16431 ft | 381 kts | 119° |
| 2026-04-23 17:34 | 37.19603 | 27.78496 | 16988 ft | 384 kts | 118° |
| 2026-04-23 17:34 | 37.17041 | 27.84449 | 18072 ft | 391 kts | 118° |
| 2026-04-23 17:35 | 37.15756 | 27.87465 | 18590 ft | 394 kts | 118° |
| 2026-04-23 17:35 | 37.13157 | 27.93592 | 19535 ft | 402 kts | 118° |
| 2026-04-23 17:35 | 37.11834 | 27.96710 | 20034 ft | 405 kts | 118° |
| 2026-04-23 17:36 | 37.10509 | 27.99830 | 20531 ft | 407 kts | 118° |
| 2026-04-23 17:36 | 37.09171 | 28.02972 | 21001 ft | 410 kts | 118° |
| 2026-04-23 17:36 | 37.08040 | 28.06251 | 21417 ft | 414 kts | 103° |
| 2026-04-23 17:36 | 37.07810 | 28.09839 | 21811 ft | 417 kts | 84° |
| 2026-04-23 17:37 | 37.08466 | 28.13362 | 22278 ft | 418 kts | 66° |
| 2026-04-23 17:37 | 37.09839 | 28.16579 | 22716 ft | 419 kts | 59° |
| 2026-04-23 17:37 | 37.12864 | 28.22869 | 23403 ft | 427 kts | 59° |
| 2026-04-23 17:38 | 37.14369 | 28.26096 | 23812 ft | 429 kts | 60° |
| 2026-04-23 17:38 | 37.15859 | 28.29348 | 24185 ft | 432 kts | 60° |
| 2026-04-23 17:38 | 37.17352 | 28.32630 | 24542 ft | 434 kts | 60° |
| 2026-04-23 17:38 | 37.18851 | 28.35929 | 24886 ft | 437 kts | 60° |
| 2026-04-23 17:39 | 37.20358 | 28.39245 | 25254 ft | 439 kts | 60° |
| 2026-04-23 17:39 | 37.21874 | 28.42578 | 25611 ft | 441 kts | 60° |
| 2026-04-23 17:39 | 37.23404 | 28.45945 | 25822 ft | 446 kts | 60° |
| 2026-04-23 17:39 | 37.24948 | 28.49348 | 26036 ft | 450 kts | 60° |
| 2026-04-23 17:40 | 37.26491 | 28.52762 | 26432 ft | 449 kts | 60° |
| 2026-04-23 17:40 | 37.28030 | 28.56174 | 26931 ft | 446 kts | 60° |
| 2026-04-23 17:40 | 37.29549 | 28.59545 | 27492 ft | 441 kts | 60° |
| 2026-04-23 17:40 | 37.31057 | 28.62895 | 27966 ft | 439 kts | 60° |
| 2026-04-23 17:41 | 37.32554 | 28.66222 | 28434 ft | 437 kts | 60° |
| 2026-04-23 17:41 | 37.35555 | 28.72892 | 29134 ft | 437 kts | 59° |
| 2026-04-23 17:41 | 37.37245 | 28.76043 | 29560 ft | 434 kts | 52° |
| 2026-04-23 17:42 | 37.41028 | 28.81941 | 30002 ft | 438 kts | 50° |
| 2026-04-23 17:42 | 37.42989 | 28.84896 | 29997 ft | 440 kts | 50° |
| 2026-04-23 17:43 | 37.46875 | 28.90832 | 29996 ft | 437 kts | 51° |
| 2026-04-23 17:43 | 37.50685 | 28.96781 | 30002 ft | 435 kts | 51° |
| 2026-04-23 17:44 | 37.54458 | 29.02734 | 30009 ft | 434 kts | 51° |
| 2026-04-23 17:44 | 37.60098 | 29.11665 | 30002 ft | 434 kts | 51° |
| 2026-04-23 17:45 | 37.65752 | 29.20636 | 30006 ft | 436 kts | 51° |
| 2026-04-23 17:46 | 37.71413 | 29.29643 | 30020 ft | 439 kts | 51° |
| 2026-04-23 17:46 | 37.75225 | 29.35721 | 30019 ft | 445 kts | 51° |
| 2026-04-23 17:47 | 37.79116 | 29.41938 | 30006 ft | 456 kts | 51° |
| 2026-04-23 17:48 | 37.85116 | 29.51545 | 30012 ft | 471 kts | 51° |
| 2026-04-23 17:48 | 37.89209 | 29.58116 | 29996 ft | 478 kts | 51° |
| 2026-04-23 17:49 | 37.93315 | 29.64720 | 30000 ft | 481 kts | 52° |
| 2026-04-23 17:49 | 37.97460 | 29.71403 | 30012 ft | 482 kts | 52° |
| 2026-04-23 17:50 | 38.01572 | 29.78044 | 29990 ft | 473 kts | 52° |
| 2026-04-23 17:50 | 38.07662 | 29.87907 | 29999 ft | 473 kts | 52° |
| 2026-04-23 17:51 | 38.11689 | 29.94450 | 30010 ft | 473 kts | 52° |
| 2026-04-23 17:52 | 38.17260 | 30.04833 | 30008 ft | 474 kts | 57° |
| 2026-04-23 17:52 | 38.20861 | 30.11900 | 29808 ft | 480 kts | 57° |
| 2026-04-23 17:52 | 38.22690 | 30.15449 | 29551 ft | 477 kts | 56° |
| 2026-04-23 17:53 | 38.26317 | 30.22418 | 29077 ft | 469 kts | 56° |
| 2026-04-23 17:53 | 38.28131 | 30.25887 | 29029 ft | 470 kts | 56° |
| 2026-04-23 17:54 | 38.31731 | 30.32771 | 29003 ft | 470 kts | 56° |
| 2026-04-23 17:54 | 38.37178 | 30.43217 | 28999 ft | 472 kts | 56° |
| 2026-04-23 17:55 | 38.42629 | 30.53712 | 29003 ft | 473 kts | 56° |
| 2026-04-23 17:56 | 38.46232 | 30.60668 | 29003 ft | 472 kts | 56° |
| 2026-04-23 17:56 | 38.51649 | 30.71156 | 28998 ft | 470 kts | 56° |
| 2026-04-23 17:57 | 38.55241 | 30.78127 | 28998 ft | 468 kts | 56° |
| 2026-04-23 17:58 | 38.60569 | 30.88497 | 29002 ft | 466 kts | 57° |
| 2026-04-23 17:58 | 38.64129 | 30.95444 | 29000 ft | 465 kts | 57° |
| 2026-04-23 17:59 | 38.67669 | 31.02369 | 29001 ft | 465 kts | 57° |
| 2026-04-23 17:59 | 38.71204 | 31.09297 | 29002 ft | 465 kts | 57° |
| 2026-04-23 18:00 | 38.74739 | 31.16240 | 29001 ft | 465 kts | 57° |
| 2026-04-23 18:00 | 38.78273 | 31.23196 | 28999 ft | 467 kts | 57° |
| 2026-04-23 18:01 | 38.81818 | 31.30188 | 29005 ft | 468 kts | 57° |
| 2026-04-23 18:01 | 38.85349 | 31.37169 | 29005 ft | 470 kts | 57° |
| 2026-04-23 18:02 | 38.88306 | 31.43027 | 29006 ft | 471 kts | 57° |
| 2026-04-23 18:02 | 38.92468 | 31.51288 | 29005 ft | 471 kts | 57° |
| 2026-04-23 18:03 | 38.96020 | 31.58357 | 28999 ft | 471 kts | 57° |
| 2026-04-23 18:03 | 38.99563 | 31.65422 | 28999 ft | 469 kts | 57° |
| 2026-04-23 18:04 | 39.03088 | 31.72469 | 29001 ft | 468 kts | 57° |
| 2026-04-23 18:04 | 39.06601 | 31.79506 | 29000 ft | 466 kts | 57° |
| 2026-04-23 18:05 | 39.10096 | 31.86522 | 29001 ft | 465 kts | 57° |
| 2026-04-23 18:05 | 39.13580 | 31.93532 | 29001 ft | 464 kts | 57° |
| 2026-04-23 18:06 | 39.17034 | 32.00495 | 29000 ft | 464 kts | 57° |
| 2026-04-23 18:06 | 39.20506 | 32.07511 | 29003 ft | 464 kts | 57° |
| 2026-04-23 18:07 | 39.23980 | 32.14549 | 29001 ft | 465 kts | 57° |
| 2026-04-23 18:07 | 39.27454 | 32.21599 | 29003 ft | 465 kts | 57° |
| 2026-04-23 18:08 | 39.30337 | 32.27462 | 28999 ft | 466 kts | 57° |
| 2026-04-23 18:08 | 39.34400 | 32.35745 | 29002 ft | 467 kts | 57° |
| 2026-04-23 18:09 | 39.37859 | 32.42811 | 29004 ft | 467 kts | 57° |
| 2026-04-23 18:09 | 39.41333 | 32.49926 | 29000 ft | 468 kts | 57° |
| 2026-04-23 18:10 | 39.44813 | 32.57069 | 28999 ft | 469 kts | 58° |
| 2026-04-23 18:10 | 39.48274 | 32.64189 | 29001 ft | 470 kts | 58° |
| 2026-04-23 18:11 | 39.51753 | 32.71361 | 29003 ft | 470 kts | 58° |
| 2026-04-23 18:11 | 39.55230 | 32.78547 | 29000 ft | 470 kts | 58° |
| 2026-04-23 18:12 | 39.58695 | 32.85724 | 28999 ft | 469 kts | 58° |
| 2026-04-23 18:12 | 39.62153 | 32.92901 | 29000 ft | 469 kts | 58° |
| 2026-04-23 18:13 | 39.65600 | 33.00074 | 29002 ft | 468 kts | 58° |
| 2026-04-23 18:13 | 39.69039 | 33.07244 | 29001 ft | 467 kts | 58° |
| 2026-04-23 18:14 | 39.71894 | 33.13210 | 29000 ft | 467 kts | 58° |
| 2026-04-23 18:14 | 39.75315 | 33.20375 | 29001 ft | 466 kts | 58° |
| 2026-04-23 18:15 | 39.78731 | 33.27545 | 29000 ft | 466 kts | 58° |
| 2026-04-23 18:15 | 39.82693 | 33.35881 | 29000 ft | 466 kts | 58° |
| 2026-04-23 18:16 | 39.85544 | 33.41894 | 29005 ft | 466 kts | 58° |
| 2026-04-23 18:16 | 39.88945 | 33.49080 | 28997 ft | 466 kts | 58° |
| 2026-04-23 18:17 | 39.94017 | 33.59830 | 29005 ft | 466 kts | 58° |
| 2026-04-23 18:17 | 39.97411 | 33.67044 | 28999 ft | 467 kts | 58° |
| 2026-04-23 18:18 | 40.00806 | 33.74275 | 29005 ft | 467 kts | 58° |
| 2026-04-23 18:18 | 40.04201 | 33.81526 | 28999 ft | 468 kts | 58° |
| 2026-04-23 18:19 | 40.07591 | 33.88781 | 29001 ft | 468 kts | 58° |
| 2026-04-23 18:19 | 40.10958 | 33.96005 | 29005 ft | 468 kts | 58° |
| 2026-04-23 18:20 | 40.14344 | 34.03287 | 29000 ft | 468 kts | 58° |
| 2026-04-23 18:20 | 40.17718 | 34.10558 | 28999 ft | 467 kts | 58° |
| 2026-04-23 18:21 | 40.21082 | 34.17826 | 29001 ft | 466 kts | 59° |
| 2026-04-23 18:21 | 40.24410 | 34.25032 | 28999 ft | 465 kts | 59° |
| 2026-04-23 18:22 | 40.27750 | 34.32283 | 28999 ft | 464 kts | 59° |
| 2026-04-23 18:22 | 40.31087 | 34.39541 | 29001 ft | 465 kts | 59° |
| 2026-04-23 18:23 | 40.36097 | 34.50473 | 28999 ft | 467 kts | 59° |
| 2026-04-23 18:24 | 40.41118 | 34.61469 | 29007 ft | 469 kts | 59° |
| 2026-04-23 18:25 | 40.46123 | 34.72467 | 29004 ft | 470 kts | 59° |
| 2026-04-23 18:25 | 40.49473 | 34.79853 | 28996 ft | 470 kts | 59° |
| 2026-04-23 18:26 | 40.52814 | 34.87233 | 29003 ft | 469 kts | 59° |
| 2026-04-23 18:26 | 40.56142 | 34.94605 | 28999 ft | 468 kts | 59° |
| 2026-04-23 18:27 | 40.59458 | 35.01967 | 28997 ft | 467 kts | 59° |
| 2026-04-23 18:27 | 40.62765 | 35.09326 | 28999 ft | 466 kts | 59° |
| 2026-04-23 18:28 | 40.66039 | 35.16630 | 29006 ft | 466 kts | 59° |
| 2026-04-23 18:28 | 40.69329 | 35.23989 | 29000 ft | 466 kts | 59° |
| 2026-04-23 18:29 | 40.72619 | 35.31361 | 29005 ft | 466 kts | 59° |
| 2026-04-23 18:29 | 40.75912 | 35.38761 | 29004 ft | 467 kts | 59° |
| 2026-04-23 18:30 | 40.79192 | 35.46149 | 29001 ft | 466 kts | 59° |
| 2026-04-23 18:30 | 40.82445 | 35.53496 | 28999 ft | 466 kts | 59° |
| 2026-04-23 18:31 | 40.85711 | 35.60887 | 28999 ft | 465 kts | 59° |
| 2026-04-23 18:31 | 40.88967 | 35.68274 | 28997 ft | 465 kts | 59° |
| 2026-04-23 18:32 | 40.92217 | 35.75667 | 29004 ft | 464 kts | 59° |
| 2026-04-23 18:32 | 40.95442 | 35.83020 | 29002 ft | 465 kts | 60° |
| 2026-04-23 18:33 | 40.98687 | 35.90436 | 29005 ft | 465 kts | 60° |
| 2026-04-23 18:33 | 41.01928 | 35.97861 | 29002 ft | 466 kts | 60° |
| 2026-04-23 18:34 | 41.05169 | 36.05305 | 29002 ft | 466 kts | 60° |
| 2026-04-23 18:34 | 41.08410 | 36.12770 | 28997 ft | 466 kts | 60° |
| 2026-04-23 18:35 | 41.11618 | 36.20174 | 29002 ft | 466 kts | 60° |
| 2026-04-23 18:35 | 41.14842 | 36.27634 | 29001 ft | 465 kts | 60° |
| 2026-04-23 18:36 | 41.18059 | 36.35096 | 28998 ft | 465 kts | 60° |
| 2026-04-23 18:36 | 41.21273 | 36.42571 | 29003 ft | 464 kts | 60° |
| 2026-04-23 18:37 | 41.24447 | 36.49969 | 28998 ft | 463 kts | 60° |
| 2026-04-23 18:37 | 41.25845 | 36.53812 | 28904 ft | 463 kts | 72° |
| 2026-04-23 18:37 | 41.26408 | 36.58018 | 28349 ft | 462 kts | 90° |
| 2026-04-23 18:37 | 41.26205 | 36.62246 | 27905 ft | 456 kts | 95° |
| 2026-04-23 18:38 | 41.25885 | 36.66418 | 27435 ft | 449 kts | 96° |
| 2026-04-23 18:38 | 41.25551 | 36.70520 | 26986 ft | 445 kts | 96° |
| 2026-04-23 18:38 | 41.25221 | 36.74599 | 26540 ft | 442 kts | 96° |
| 2026-04-23 18:38 | 41.24905 | 36.78645 | 26089 ft | 439 kts | 96° |
| 2026-04-23 18:39 | 41.24600 | 36.82673 | 25640 ft | 437 kts | 96° |
| 2026-04-23 18:39 | 41.24305 | 36.86675 | 25192 ft | 434 kts | 95° |
| 2026-04-23 18:39 | 41.24015 | 36.90653 | 24744 ft | 432 kts | 95° |
| 2026-04-23 18:39 | 41.23727 | 36.94628 | 24294 ft | 430 kts | 95° |
| 2026-04-23 18:40 | 41.23441 | 36.98575 | 23845 ft | 428 kts | 95° |
| 2026-04-23 18:40 | 41.23155 | 37.02499 | 23397 ft | 426 kts | 95° |
| 2026-04-23 18:40 | 41.22869 | 37.06406 | 22948 ft | 424 kts | 95° |
| 2026-04-23 18:40 | 41.22583 | 37.10295 | 22498 ft | 421 kts | 95° |
| 2026-04-23 18:41 | 41.22301 | 37.14106 | 22055 ft | 419 kts | 96° |
| 2026-04-23 18:41 | 41.22015 | 37.17943 | 21605 ft | 416 kts | 96° |
| 2026-04-23 18:41 | 41.21730 | 37.21758 | 21150 ft | 413 kts | 96° |
| 2026-04-23 18:41 | 41.21446 | 37.25547 | 20703 ft | 410 kts | 96° |
| 2026-04-23 18:42 | 41.21162 | 37.29302 | 20256 ft | 407 kts | 96° |
| 2026-04-23 18:42 | 41.20879 | 37.33039 | 19805 ft | 405 kts | 96° |
| 2026-04-23 18:42 | 41.20598 | 37.36742 | 19356 ft | 402 kts | 96° |
| 2026-04-23 18:42 | 41.20316 | 37.40424 | 18906 ft | 399 kts | 96° |
| 2026-04-23 18:43 | 41.20036 | 37.44075 | 18468 ft | 396 kts | 96° |
| 2026-04-23 18:43 | 41.19755 | 37.47718 | 18006 ft | 394 kts | 96° |
| 2026-04-23 18:43 | 41.19476 | 37.51324 | 17556 ft | 391 kts | 96° |
| 2026-04-23 18:43 | 41.19201 | 37.54863 | 17113 ft | 389 kts | 96° |
| 2026-04-23 18:44 | 41.18923 | 37.58426 | 16666 ft | 386 kts | 96° |
| 2026-04-23 18:44 | 41.18646 | 37.61963 | 16214 ft | 384 kts | 96° |
| 2026-04-23 18:44 | 41.18369 | 37.65489 | 15763 ft | 382 kts | 96° |
| 2026-04-23 18:44 | 41.18093 | 37.68984 | 15319 ft | 379 kts | 96° |
| 2026-04-23 18:45 | 41.17818 | 37.72463 | 14864 ft | 377 kts | 96° |
| 2026-04-23 18:45 | 41.17545 | 37.75887 | 14420 ft | 376 kts | 96° |
| 2026-04-23 18:45 | 41.17270 | 37.79335 | 13970 ft | 374 kts | 96° |
| 2026-04-23 18:45 | 41.16995 | 37.82764 | 13525 ft | 373 kts | 96° |
| 2026-04-23 18:46 | 41.16720 | 37.86176 | 13066 ft | 369 kts | 96° |
| 2026-04-23 18:46 | 41.16448 | 37.89546 | 12618 ft | 366 kts | 96° |
| 2026-04-23 18:46 | 41.16178 | 37.92886 | 12168 ft | 363 kts | 96° |
| 2026-04-23 18:46 | 41.15911 | 37.96166 | 11723 ft | 360 kts | 96° |
| 2026-04-23 18:47 | 41.15642 | 37.99462 | 11272 ft | 357 kts | 96° |
| 2026-04-23 18:47 | 41.15374 | 38.02724 | 10822 ft | 355 kts | 96° |
| 2026-04-23 18:47 | 41.15108 | 38.05968 | 10376 ft | 352 kts | 96° |
| 2026-04-23 18:47 | 41.14842 | 38.09189 | 9923 ft | 350 kts | 96° |
| 2026-04-23 18:48 | 41.14577 | 38.12394 | 9475 ft | 348 kts | 96° |
| 2026-04-23 18:48 | 41.14316 | 38.15536 | 9037 ft | 345 kts | 96° |
| 2026-04-23 18:48 | 41.14052 | 38.18694 | 8573 ft | 343 kts | 96° |
| 2026-04-23 18:48 | 41.13790 | 38.21832 | 8143 ft | 341 kts | 96° |
| 2026-04-23 18:49 | 41.13529 | 38.24943 | 8040 ft | 340 kts | 96° |
| 2026-04-23 18:49 | 41.13266 | 38.28065 | 8006 ft | 341 kts | 96° |
| 2026-04-23 18:49 | 41.13005 | 38.31163 | 7993 ft | 333 kts | 96° |
| 2026-04-23 18:49 | 41.12750 | 38.34169 | 7989 ft | 323 kts | 96° |
| 2026-04-23 18:50 | 41.12585 | 38.36110 | 7988 ft | 317 kts | 96° |
| 2026-04-23 18:50 | 41.12258 | 38.39952 | 7997 ft | 312 kts | 96° |
| 2026-04-23 18:50 | 41.12012 | 38.42826 | 8012 ft | 315 kts | 96° |
| 2026-04-23 18:50 | 41.11764 | 38.45722 | 8013 ft | 317 kts | 96° |
| 2026-04-23 18:51 | 41.11517 | 38.48598 | 8011 ft | 319 kts | 96° |
| 2026-04-23 18:51 | 41.11264 | 38.51531 | 8008 ft | 319 kts | 96° |
| 2026-04-23 18:51 | 41.11011 | 38.54456 | 8003 ft | 319 kts | 96° |
| 2026-04-23 18:51 | 41.10757 | 38.57384 | 8000 ft | 319 kts | 96° |
| 2026-04-23 18:52 | 41.10503 | 38.60300 | 8000 ft | 318 kts | 96° |
| 2026-04-23 18:52 | 41.10249 | 38.63206 | 8000 ft | 317 kts | 96° |
| 2026-04-23 18:52 | 41.09995 | 38.66107 | 8001 ft | 316 kts | 96° |
| 2026-04-23 18:52 | 41.09741 | 38.68997 | 8004 ft | 315 kts | 97° |
| 2026-04-23 18:53 | 41.09490 | 38.71846 | 8003 ft | 315 kts | 97° |
| 2026-04-23 18:53 | 41.09236 | 38.74729 | 8008 ft | 314 kts | 97° |
| 2026-04-23 18:53 | 41.08981 | 38.77601 | 8003 ft | 314 kts | 97° |
| 2026-04-23 18:53 | 41.08726 | 38.80480 | 8005 ft | 314 kts | 97° |
| 2026-04-23 18:54 | 41.08469 | 38.83365 | 8003 ft | 315 kts | 97° |
| 2026-04-23 18:54 | 41.08211 | 38.86248 | 8005 ft | 315 kts | 97° |
| 2026-04-23 18:54 | 41.07953 | 38.89135 | 8008 ft | 315 kts | 97° |
| 2026-04-23 18:54 | 41.07693 | 38.92024 | 8004 ft | 315 kts | 97° |
| 2026-04-23 18:55 | 41.07433 | 38.94910 | 8007 ft | 316 kts | 97° |
| 2026-04-23 18:55 | 41.07172 | 38.97807 | 7841 ft | 318 kts | 97° |
| 2026-04-23 18:55 | 41.06907 | 39.00727 | 7507 ft | 319 kts | 97° |
| 2026-04-23 18:55 | 41.06646 | 39.03606 | 7081 ft | 315 kts | 97° |
| 2026-04-23 18:56 | 41.06471 | 39.05536 | 6802 ft | 309 kts | 97° |
| 2026-04-23 18:56 | 41.06134 | 39.09217 | 6261 ft | 299 kts | 97° |
| 2026-04-23 18:56 | 41.05887 | 39.11912 | 5855 ft | 292 kts | 96° |
| 2026-04-23 18:56 | 41.05967 | 39.14553 | 5418 ft | 286 kts | 73° |
| 2026-04-23 18:57 | 41.06657 | 39.16985 | 5048 ft | 279 kts | 68° |
| 2026-04-23 18:57 | 41.07386 | 39.19351 | 4633 ft | 275 kts | 68° |
| 2026-04-23 18:57 | 41.08097 | 39.21689 | 4242 ft | 271 kts | 68° |
| 2026-04-23 18:57 | 41.08790 | 39.23991 | 3835 ft | 267 kts | 68° |
| 2026-04-23 18:58 | 41.09473 | 39.26272 | 3444 ft | 265 kts | 68° |
| 2026-04-23 18:58 | 41.10148 | 39.28531 | 3055 ft | 262 kts | 68° |
| 2026-04-23 18:58 | 41.10821 | 39.30790 | 3018 ft | 266 kts | 68° |
| 2026-04-23 18:58 | 41.11504 | 39.33084 | 2979 ft | 267 kts | 68° |
| 2026-04-23 18:59 | 41.12149 | 39.35376 | 2957 ft | 264 kts | 76° |
| 2026-04-23 18:59 | 41.12160 | 39.37765 | 2987 ft | 260 kts | 103° |
| 2026-04-23 18:59 | 41.11563 | 39.40025 | 2976 ft | 257 kts | 112° |
| 2026-04-23 18:59 | 41.10893 | 39.42153 | 2952 ft | 241 kts | 113° |
| 2026-04-23 19:00 | 41.10277 | 39.44096 | 2947 ft | 222 kts | 113° |
| 2026-04-23 19:00 | 41.09700 | 39.45934 | 2958 ft | 211 kts | 112° |
| 2026-04-23 19:00 | 41.09143 | 39.47721 | 2991 ft | 208 kts | 112° |
| 2026-04-23 19:00 | 41.08595 | 39.49492 | 2993 ft | 207 kts | 112° |
| 2026-04-23 19:01 | 41.08061 | 39.51223 | 2981 ft | 198 kts | 112° |
| 2026-04-23 19:01 | 41.07557 | 39.52861 | 2953 ft | 187 kts | 112° |
| 2026-04-23 19:01 | 41.07077 | 39.54417 | 2990 ft | 177 kts | 112° |
| 2026-04-23 19:01 | 41.06615 | 39.55918 | 2967 ft | 171 kts | 112° |
| 2026-04-23 19:02 | 41.06326 | 39.56856 | 2972 ft | 160 kts | 112° |
| 2026-04-23 19:02 | 41.05777 | 39.58645 | 2970 ft | 154 kts | 112° |
| 2026-04-23 19:02 | 41.05384 | 39.59934 | 2975 ft | 153 kts | 111° |
| 2026-04-23 19:02 | 41.04993 | 39.61257 | 2913 ft | 155 kts | 112° |
| 2026-04-23 19:03 | 41.04590 | 39.62581 | 2715 ft | 154 kts | 112° |
| 2026-04-23 19:03 | 41.04185 | 39.63888 | 2493 ft | 152 kts | 112° |
| 2026-04-23 19:03 | 41.03782 | 39.65184 | 2275 ft | 152 kts | 112° |
| 2026-04-23 19:03 | 41.03380 | 39.66478 | 2055 ft | 151 kts | 112° |
| 2026-04-23 19:04 | 41.02980 | 39.67766 | 1834 ft | 151 kts | 112° |
| 2026-04-23 19:04 | 41.02581 | 39.69049 | 1621 ft | 151 kts | 112° |
| 2026-04-23 19:04 | 41.02318 | 39.69898 | 1462 ft | 150 kts | 112° |
| 2026-04-23 19:04 | 41.01921 | 39.71176 | 1252 ft | 150 kts | 112° |
| 2026-04-23 19:05 | 41.01526 | 39.72448 | 1032 ft | 149 kts | 112° |
| 2026-04-23 19:05 | 41.01132 | 39.73720 | 813 ft | 149 kts | 112° |
| 2026-04-23 19:05 | 41.00739 | 39.74986 | 594 ft | 148 kts | 112° |
| 2026-04-23 19:05 | 41.00348 | 39.76248 | 378 ft | 147 kts | 112° |
| 2026-04-23 19:06 | 40.99961 | 39.77499 | 169 ft | 147 kts | 112° |
| 2026-04-23 19:06 | 40.99593 | 39.78677 | 109 ft | 120 kts | 111° |
| 2026-04-23 19:06 | 40.99368 | 39.79412 | 111 ft | 47 kts | 112° |
| 2026-04-23 19:06 | 40.99248 | 39.79783 | 115 ft | 41 kts | 114° |
| 2026-04-23 19:07 | 40.99137 | 39.80110 | 112 ft | 37 kts | 111° |
| 2026-04-23 19:07 | 40.99034 | 39.80359 | 113 ft | 8 kts | 123° |
| 2026-04-23 19:07 | 40.99050 | 39.80409 | 111 ft | 3 kts | 12° |
| 2026-04-23 19:07 | 40.99069 | 39.80380 | 112 ft | 8 kts | 292° |
| 2026-04-23 19:08 | 40.99121 | 39.80214 | 112 ft | 32 kts | 292° |
| 2026-04-23 19:08 | 40.99234 | 39.79851 | 115 ft | 50 kts | 292° |
| 2026-04-23 19:08 | 40.99364 | 39.79439 | 114 ft | 47 kts | 291° |
| 2026-04-23 19:08 | 40.99345 | 39.79031 | 105 ft | 44 kts | 284° |
| 2026-04-23 19:09 | 40.99452 | 39.78668 | 107 ft | 40 kts | 293° |
| 2026-04-23 19:09 | 40.99559 | 39.78344 | 111 ft | 36 kts | 293° |
| 2026-04-23 19:09 | 40.99612 | 39.78156 | 112 ft | 5 kts | 282° |
| 2026-04-23 19:09 | 40.99594 | 39.78102 | 111 ft | 8 kts | 213° |
| 2026-04-23 19:10 | 40.99564 | 39.78086 | 112 ft | 0 kts | 201° |